createdAt,value
2022-12-19T00:01:37.018Z,102638.38
2022-12-19T00:04:09.052Z,102629.47
2022-12-19T00:06:43.570Z,102618.47
2022-12-19T00:09:11.783Z,102618.59
2022-12-19T00:11:38.859Z,102617.09
2022-12-19T00:14:06.374Z,102594.47
2022-12-19T00:16:33.873Z,102603.44
2022-12-19T00:19:01.990Z,102613.50
2022-12-19T00:21:31.115Z,102589.25
2022-12-19T00:24:03.059Z,102600.88
2022-12-19T00:26:32.629Z,102595.53
2022-12-19T00:29:03.314Z,102591.41
2022-12-19T00:31:34.347Z,102586.06
2022-12-19T00:34:02.045Z,102575.59
2022-12-19T00:36:32.850Z,102573.91
2022-12-19T00:39:02.101Z,102567.41
2022-12-19T00:41:39.423Z,102577.63
2022-12-19T00:44:13.080Z,102570.63
2022-12-19T00:46:49.265Z,102561.66
2022-12-19T00:49:20.720Z,102566.88
2022-12-19T00:51:47.662Z,102566.13
2022-12-19T00:54:14.729Z,102562.81
2022-12-19T00:56:42.053Z,102546.59
2022-12-19T00:59:10.459Z,102549.38
2022-12-19T01:01:41.095Z,102533.16
2022-12-19T01:04:29.559Z,102524.09
2022-12-19T01:07:01.560Z,102514.88
2022-12-19T01:09:33.659Z,102528.44
2022-12-19T01:12:19.626Z,102513.34
2022-12-19T01:14:54.611Z,102515.25
2022-12-19T01:17:24.620Z,102513.72
2022-12-19T01:19:53.250Z,102507.06
2022-12-19T01:22:20.134Z,102510.50
2022-12-19T01:24:47.013Z,102506.53
2022-12-19T01:27:15.581Z,102503.22
2022-12-19T01:29:51.797Z,102499.13
2022-12-19T01:32:20.966Z,102507.03
2022-12-19T01:34:47.925Z,102491.81
2022-12-19T01:37:17.579Z,102495.38
2022-12-19T01:39:45.000Z,102490.41
2022-12-19T01:42:24.260Z,102476.72
2022-12-19T01:45:13.316Z,102467.16
2022-12-19T01:47:53.541Z,102466.00
2022-12-19T01:50:56.960Z,102458.88
2022-12-19T01:53:48.345Z,102438.56
2022-12-19T01:56:19.024Z,102441.25
2022-12-19T01:58:46.836Z,102426.69
2022-12-19T02:01:16.481Z,102422.34
2022-12-19T02:03:45.310Z,102412.13
2022-12-19T02:06:16.384Z,102410.31
2022-12-19T02:08:46.702Z,102402.31
2022-12-19T02:11:13.717Z,102403.31
2022-12-19T02:13:41.094Z,102402.41
2022-12-19T02:16:43.760Z,102398.84
2022-12-19T02:19:33.104Z,102393.63
2022-12-19T02:22:19.192Z,102387.63
2022-12-19T02:25:37.854Z,102375.50
2022-12-19T02:28:34.629Z,102385.72
2022-12-19T02:31:20.200Z,102389.03
2022-12-19T02:34:22.861Z,102369.66
2022-12-19T02:37:12.048Z,102379.06
2022-12-19T02:40:16.545Z,102372.16
2022-12-19T02:42:50.953Z,102370.50
2022-12-19T02:45:28.551Z,102358.59
2022-12-19T02:48:05.749Z,102348.16
2022-12-19T02:50:39.685Z,102340.47
2022-12-19T02:53:07.209Z,102345.50
2022-12-19T02:56:09.341Z,102345.13
2022-12-19T02:59:00.515Z,102340.75
2022-12-19T03:01:58.201Z,102346.44
2022-12-19T03:05:20.093Z,102346.94
2022-12-19T03:08:07.373Z,102336.47
2022-12-19T03:10:43.147Z,102337.88
2022-12-19T03:13:13.173Z,102335.59
2022-12-19T03:15:41.025Z,102339.03
2022-12-19T03:18:09.538Z,102328.44
2022-12-19T03:21:04.373Z,102332.13
2022-12-19T03:23:31.999Z,102342.47
2022-12-19T03:26:08.946Z,102340.81
2022-12-19T03:29:20.334Z,102338.16
2022-12-19T03:31:48.315Z,102333.78
2022-12-19T03:34:31.934Z,102336.25
2022-12-19T03:37:04.054Z,102344.00
2022-12-19T03:39:32.477Z,102327.44
2022-12-19T03:42:20.111Z,102348.38
2022-12-19T03:44:49.711Z,102338.16
2022-12-19T03:47:49.519Z,102324.47
2022-12-19T03:50:16.665Z,102327.81
2022-12-19T03:52:53.945Z,102321.81
2022-12-19T03:55:41.542Z,102331.13
2022-12-19T03:58:19.449Z,102320.91
2022-12-19T04:00:48.494Z,102321.56
2022-12-19T04:03:19.197Z,102313.91
2022-12-19T04:05:48.536Z,102319.75
2022-12-19T04:08:16.786Z,102311.09
2022-12-19T04:10:50.452Z,102320.41
2022-12-19T04:13:44.706Z,102312.75
2022-12-19T04:16:28.370Z,102326.41
2022-12-19T04:19:04.915Z,102331.53
2022-12-19T04:21:44.200Z,102326.41
2022-12-19T04:24:26.574Z,102318.66
2022-12-19T04:26:56.058Z,102322.97
2022-12-19T04:29:25.488Z,102321.31
2022-12-19T04:31:53.037Z,102316.19
2022-12-19T04:34:21.266Z,102318.66
2022-12-19T04:36:50.321Z,102312.50
2022-12-19T04:39:17.231Z,102307.66
2022-12-19T04:41:44.166Z,102315.53
2022-12-19T04:44:11.035Z,102313.00
2022-12-19T04:46:37.940Z,102301.25
2022-12-19T04:49:04.887Z,102292.47
2022-12-19T04:51:32.067Z,102303.13
2022-12-19T04:53:58.923Z,102299.84
2022-12-19T04:56:25.865Z,102302.25
2022-12-19T04:59:01.840Z,102300.59
2022-12-19T05:01:28.837Z,102302.25
2022-12-19T05:03:59.910Z,102288.47
2022-12-19T05:06:29.765Z,102276.59
2022-12-19T05:08:56.684Z,102270.72
2022-12-19T05:11:23.578Z,102263.72
2022-12-19T05:13:50.462Z,102266.13
2022-12-19T05:16:17.534Z,102270.47
2022-12-19T05:18:44.769Z,102248.16
2022-12-19T05:21:12.028Z,102245.47
2022-12-19T05:23:39.172Z,102249.63
2022-12-19T05:26:07.375Z,102256.66
2022-12-19T05:28:34.793Z,102263.66
2022-12-19T05:31:12.769Z,102262.88
2022-12-19T05:33:40.997Z,102252.00
2022-12-19T05:36:09.412Z,102255.69
2022-12-19T05:38:37.123Z,102241.25
2022-12-19T05:41:17.520Z,102231.56
2022-12-19T05:43:46.800Z,102247.38
2022-12-19T05:46:13.763Z,102246.59
2022-12-19T05:48:40.762Z,102231.41
2022-12-19T05:51:08.402Z,102240.06
2022-12-19T05:53:36.862Z,102238.19
2022-12-19T05:56:13.400Z,102226.75
2022-12-19T05:58:41.466Z,102224.41
2022-12-19T06:01:23.102Z,102209.75
2022-12-19T06:03:50.843Z,102196.22
2022-12-19T06:06:25.032Z,102208.84
2022-12-19T06:08:57.175Z,102213.09
2022-12-19T06:11:24.783Z,102215.78
2022-12-19T06:13:51.929Z,102216.88
2022-12-19T06:16:21.409Z,102212.00
2022-12-19T06:18:48.386Z,102204.69
2022-12-19T06:21:18.830Z,102199.78
2022-12-19T06:23:46.614Z,102192.59
2022-12-19T06:26:19.769Z,102183.28
2022-12-19T06:28:52.291Z,102191.16
2022-12-19T06:31:22.013Z,102187.19
2022-12-19T06:33:49.333Z,102178.59
2022-12-19T06:36:23.928Z,102170.41
2022-12-19T06:38:52.213Z,102169.72
2022-12-19T06:41:38.511Z,102163.53
2022-12-19T06:44:09.519Z,102155.59
2022-12-19T06:46:37.905Z,102157.94
2022-12-19T06:49:05.783Z,102168.06
2022-12-19T06:51:32.845Z,102183.28
2022-12-19T06:53:59.802Z,102161.06
2022-12-19T06:56:27.062Z,102164.84
2022-12-19T06:58:54.355Z,102165.94
2022-12-19T07:01:32.434Z,102153.16
2022-12-19T07:03:59.588Z,102156.59
2022-12-19T07:06:26.505Z,102158.50
2022-12-19T07:08:53.538Z,102160.88
2022-12-19T07:11:20.431Z,102162.75
2022-12-19T07:13:47.309Z,102156.09
2022-12-19T07:16:14.331Z,102154.63
2022-12-19T07:18:41.710Z,102151.28
2022-12-19T07:21:11.288Z,102143.75
2022-12-19T07:23:39.301Z,102144.41
2022-12-19T07:26:06.335Z,102143.63
2022-12-19T07:28:34.358Z,102128.53
2022-12-19T07:31:01.270Z,102122.41
2022-12-19T07:33:28.167Z,102129.41
2022-12-19T07:35:55.059Z,102123.63
2022-12-19T07:38:21.955Z,102126.41
2022-12-19T07:40:48.847Z,102123.06
2022-12-19T07:43:15.860Z,102130.72
2022-12-19T07:45:42.868Z,102121.41
2022-12-19T07:48:10.163Z,102133.41
2022-12-19T07:50:37.141Z,102119.72
2022-12-19T07:53:04.075Z,102134.41
2022-12-19T07:55:30.975Z,102131.72
2022-12-19T07:57:59.611Z,102131.84
2022-12-19T08:00:26.580Z,102109.50
2022-12-19T08:02:53.580Z,102110.72
2022-12-19T08:05:20.529Z,102104.81
2022-12-19T08:07:47.425Z,102102.59
2022-12-19T08:10:15.069Z,102092.47
2022-12-19T08:12:42.060Z,102099.56
2022-12-19T08:15:09.473Z,102106.59
2022-12-19T08:17:38.846Z,102109.38
2022-12-19T08:20:07.944Z,102105.38
2022-12-19T08:22:35.128Z,102099.69
2022-12-19T08:25:02.017Z,102105.16
2022-12-19T08:27:29.013Z,102090.88
2022-12-19T08:29:55.896Z,102091.28
2022-12-19T08:32:22.800Z,102078.06
2022-12-19T08:34:50.486Z,102068.16
2022-12-19T08:37:17.890Z,102063.03
2022-12-19T08:39:44.899Z,102073.00
2022-12-19T08:42:11.806Z,102056.16
2022-12-19T08:44:38.723Z,102051.84
2022-12-19T08:47:05.654Z,102049.59
2022-12-19T08:49:32.598Z,102035.59
2022-12-19T08:51:59.477Z,102031.91
2022-12-19T08:54:27.144Z,102040.38
2022-12-19T08:56:54.170Z,102052.00
2022-12-19T08:59:30.563Z,102041.09
2022-12-19T09:02:00.727Z,102049.97
2022-12-19T09:05:17.253Z,102029.47
2022-12-19T09:07:16.312Z,102033.56
2022-12-19T09:09:44.749Z,102033.88
2022-12-19T09:12:13.571Z,102024.00
2022-12-19T09:14:40.458Z,102015.56
2022-12-19T09:17:09.139Z,102011.63
2022-12-19T09:19:36.232Z,102000.94
2022-12-19T09:22:03.171Z,102005.91
2022-12-19T09:24:30.068Z,102003.44
2022-12-19T09:26:56.945Z,101992.59
2022-12-19T09:29:24.745Z,101988.56
2022-12-19T09:31:56.462Z,101991.13
2022-12-19T09:34:36.665Z,101984.31
2022-12-19T09:37:15.425Z,101987.56
2022-12-19T09:39:46.143Z,101975.88
2022-12-19T09:42:43.502Z,101964.13
2022-12-19T09:45:32.361Z,101937.41
2022-12-19T09:48:01.345Z,101946.38
2022-12-19T09:50:53.927Z,101928.81
2022-12-19T09:53:33.639Z,101910.00
2022-12-19T09:56:02.792Z,101928.59
2022-12-19T09:58:43.403Z,101914.38
2022-12-19T10:01:34.179Z,101922.47
2022-12-19T10:04:11.612Z,101916.75
2022-12-19T10:07:08.829Z,101915.34
2022-12-19T10:12:14.549Z,101907.81
2022-12-19T10:13:07.677Z,101919.25
2022-12-19T10:16:10.850Z,101909.47
2022-12-19T10:19:09.124Z,101905.53
2022-12-19T10:22:17.758Z,101905.72
2022-12-19T10:25:08.205Z,101887.03
2022-12-19T10:28:00.502Z,101896.88
2022-12-19T10:30:35.988Z,101884.13
2022-12-19T10:33:53.705Z,101873.16
2022-12-19T10:36:36.260Z,101885.13
2022-12-19T10:39:21.906Z,101883.84
2022-12-19T10:41:51.382Z,101870.34
2022-12-19T10:44:19.277Z,101868.06
2022-12-19T10:46:49.702Z,101859.81
2022-12-19T10:49:26.989Z,101853.25
2022-12-19T10:52:01.934Z,101849.47
2022-12-19T10:54:38.018Z,101846.38
2022-12-19T10:57:22.688Z,101845.75
2022-12-19T11:00:20.165Z,101856.19
2022-12-19T11:02:53.685Z,101850.25
2022-12-19T11:05:45.855Z,101841.22
2022-12-19T11:08:20.635Z,101826.84
2022-12-19T11:11:49.340Z,101821.97
2022-12-19T11:19:39.726Z,101808.50
2022-12-19T11:23:04.940Z,101806.69
2022-12-19T11:29:27.068Z,101796.06
2022-12-19T11:29:39.637Z,101794.78
2022-12-19T11:30:46.073Z,101803.94
2022-12-19T11:30:59.588Z,101800.09
2022-12-19T11:34:23.627Z,101763.69
2022-12-19T11:36:58.323Z,101777.28
2022-12-19T11:39:43.735Z,101774.25
2022-12-19T11:42:39.258Z,101773.53
2022-12-19T11:45:46.950Z,101770.13
2022-12-19T11:48:27.360Z,101775.19
2022-12-19T11:51:34.860Z,101774.41
2022-12-19T11:54:25.813Z,101778.09
2022-12-19T11:56:52.778Z,101766.38
2022-12-19T11:59:21.950Z,101771.78
2022-12-19T12:02:05.291Z,101774.66
2022-12-19T12:04:54.616Z,101771.44
2022-12-19T12:07:40.651Z,101760.50
2022-12-19T12:16:21.147Z,101761.56
2022-12-19T12:26:23.076Z,101756.47
2022-12-19T12:30:02.883Z,101747.31
2022-12-19T12:31:04.009Z,101744.91
2022-12-19T12:31:29.274Z,101738.88
2022-12-19T12:31:43.410Z,101725.28
2022-12-19T12:31:52.366Z,101728.72
2022-12-19T12:35:34.430Z,101731.31
2022-12-19T12:39:04.052Z,101713.13
2022-12-19T12:42:05.014Z,101703.63
2022-12-19T12:44:44.833Z,101701.94
2022-12-19T12:47:26.563Z,101696.88
2022-12-19T12:50:08.700Z,101699.44
2022-12-19T12:52:47.907Z,101704.75
2022-12-19T12:55:39.985Z,101685.03
2022-12-19T12:58:45.661Z,101686.00
2022-12-19T13:01:33.842Z,101693.00
2022-12-19T13:04:12.827Z,101691.38
2022-12-19T13:07:26.191Z,101687.94
2022-12-19T13:10:21.451Z,101662.97
2022-12-19T13:13:16.516Z,101666.47
2022-12-19T13:15:46.020Z,101651.03
2022-12-19T13:18:33.519Z,101647.41
2022-12-19T13:21:04.100Z,101661.50
2022-12-19T13:23:42.720Z,101656.53
2022-12-19T13:26:42.276Z,101654.94
2022-12-19T13:30:01.157Z,101648.88
2022-12-19T13:32:39.001Z,101642.13
2022-12-19T13:36:54.760Z,101655.94
2022-12-19T13:40:01.585Z,101644.78
2022-12-19T13:41:47.067Z,101649.97
2022-12-19T13:44:14.411Z,101640.38
2022-12-19T13:46:43.823Z,101643.97
2022-12-19T13:49:14.177Z,101639.78
2022-12-19T13:51:57.171Z,101629.34
2022-12-19T13:54:48.833Z,101638.16
2022-12-19T13:57:29.848Z,101636.47
2022-12-19T14:00:02.221Z,101648.59
2022-12-19T14:02:45.028Z,101640.88
2022-12-19T14:05:49.389Z,101648.75
2022-12-19T14:08:22.453Z,101642.84
2022-12-19T14:11:38.651Z,101639.50
2022-12-19T14:14:16.434Z,101626.63
2022-12-19T14:16:47.018Z,101633.50
2022-12-19T14:19:27.722Z,101625.91
2022-12-19T14:22:05.443Z,101616.53
2022-12-19T14:24:40.217Z,101619.19
2022-12-19T14:28:20.292Z,101607.75
2022-12-19T14:30:30.802Z,101619.19
2022-12-19T14:33:43.766Z,101624.44
2022-12-19T14:36:10.008Z,101596.50
2022-12-19T14:39:25.379Z,101610.81
2022-12-19T14:41:46.189Z,101621.91
2022-12-19T14:52:25.769Z,101614.06
2022-12-19T14:52:34.500Z,101620.16
2022-12-19T14:54:24.479Z,101621.91
2022-12-19T14:54:52.804Z,101622.00
2022-12-19T14:59:03.023Z,101613.63
2022-12-19T15:01:34.167Z,101603.38
2022-12-19T15:04:53.200Z,101611.97
2022-12-19T15:07:12.218Z,101608.66
2022-12-19T15:11:05.010Z,101607.13
2022-12-19T15:14:46.966Z,101602.84
2022-12-19T15:16:23.827Z,101599.44
2022-12-19T15:18:54.018Z,101611.53
2022-12-19T15:21:20.917Z,101607.38
2022-12-19T15:23:47.802Z,101610.94
2022-12-19T15:26:17.937Z,101617.03
2022-12-19T15:28:54.743Z,101603.28
2022-12-19T15:31:48.177Z,101603.50
2022-12-19T15:34:34.831Z,101611.34
2022-12-19T15:37:02.771Z,101603.69
2022-12-19T15:39:30.269Z,101597.59
2022-12-19T15:41:59.667Z,101594.63
2022-12-19T15:44:37.315Z,101586.81
2022-12-19T15:47:07.951Z,101589.53
2022-12-19T15:49:35.278Z,101594.16
2022-12-19T15:52:02.815Z,101593.41
2022-12-19T15:57:39.233Z,101588.47
2022-12-19T16:00:24.965Z,101579.91
2022-12-19T16:03:23.426Z,101579.16
2022-12-19T16:05:41.331Z,101563.50
2022-12-19T16:08:13.885Z,101569.03
2022-12-19T16:10:44.187Z,101564.00
2022-12-19T16:13:37.206Z,101565.78
2022-12-19T16:16:11.095Z,101552.22
2022-12-19T16:18:42.573Z,101549.78
2022-12-19T16:21:22.654Z,101550.72
2022-12-19T16:23:53.198Z,101552.56
2022-12-19T16:26:33.966Z,101522.84
2022-12-19T16:29:01.657Z,101540.88
2022-12-19T16:31:28.672Z,101533.13
2022-12-19T16:33:55.872Z,101548.81
2022-12-19T16:36:23.113Z,101537.75
2022-12-19T16:38:50.036Z,101538.69
2022-12-19T16:41:24.475Z,101535.28
2022-12-19T16:43:52.274Z,101540.44
2022-12-19T16:46:23.693Z,101530.25
2022-12-19T16:48:51.066Z,101534.66
2022-12-19T16:51:24.848Z,101526.91
2022-12-19T16:54:00.321Z,101526.16
2022-12-19T16:56:33.428Z,101522.81
2022-12-19T16:59:03.854Z,101519.44
2022-12-19T17:01:30.860Z,101527.31
2022-12-19T17:03:57.904Z,101520.56
2022-12-19T17:06:24.932Z,101512.00
2022-12-19T17:08:51.930Z,101508.53
2022-12-19T17:11:21.391Z,101516.53
2022-12-19T17:13:51.546Z,101504.31
2022-12-19T17:16:19.038Z,101512.25
2022-12-19T17:18:47.171Z,101486.31
2022-12-19T17:21:18.926Z,101509.78
2022-12-19T17:23:46.360Z,101509.84
2022-12-19T17:26:17.658Z,101502.31
2022-12-19T17:28:47.916Z,101505.84
2022-12-19T17:31:22.619Z,101501.66
2022-12-19T17:33:49.819Z,101505.22
2022-12-19T17:36:21.356Z,101496.72
2022-12-19T17:38:51.878Z,101501.16
2022-12-19T17:41:18.757Z,101491.81
2022-12-19T17:43:45.665Z,101487.59
2022-12-19T17:46:21.621Z,101491.81
2022-12-19T17:48:53.171Z,101483.50
2022-12-19T17:51:22.957Z,101483.59
2022-12-19T17:53:50.043Z,101491.56
2022-12-19T17:56:19.746Z,101478.81
2022-12-19T17:58:49.158Z,101477.09
2022-12-19T18:01:21.559Z,101481.56
2022-12-19T18:03:51.461Z,101479.09
2022-12-19T18:06:18.496Z,101476.56
2022-12-19T18:08:45.704Z,101478.38
2022-12-19T18:11:22.716Z,101472.44
2022-12-19T18:13:50.431Z,101465.63
2022-12-19T18:16:21.719Z,101465.53
2022-12-19T18:18:48.785Z,101460.81
2022-12-19T18:21:18.686Z,101466.94
2022-12-19T18:23:46.390Z,101454.13
2022-12-19T18:26:13.928Z,101454.22
2022-12-19T18:28:42.270Z,101455.09
2022-12-19T18:31:17.416Z,101448.19
2022-12-19T18:33:47.138Z,101456.03
2022-12-19T18:36:20.310Z,101459.63
2022-12-19T18:38:48.731Z,101464.91
2022-12-19T18:41:18.026Z,101463.09
2022-12-19T18:43:45.591Z,101457.31
2022-12-19T18:46:19.710Z,101454.00
2022-12-19T18:48:47.101Z,101444.59
2022-12-19T18:51:18.604Z,101447.28
2022-12-19T18:53:47.862Z,101443.88
2022-12-19T18:56:15.530Z,101457.78
2022-12-19T18:58:42.784Z,101447.41
2022-12-19T19:01:21.851Z,101458.94
2022-12-19T19:03:57.431Z,101458.09
2022-12-19T19:06:28.859Z,101442.63
2022-12-19T19:08:57.014Z,101441.00
2022-12-19T19:11:51.551Z,101447.03
2022-12-19T19:14:18.439Z,101458.16
2022-12-19T19:16:45.447Z,101449.66
2022-12-19T19:19:17.312Z,101447.06
2022-12-19T19:21:44.255Z,101452.38
2022-12-19T19:24:15.644Z,101449.72
2022-12-19T19:26:42.798Z,101447.47
2022-12-19T19:29:09.926Z,101450.09
2022-12-19T19:31:41.200Z,101447.56
2022-12-19T19:34:24.395Z,101444.13
2022-12-19T19:36:56.069Z,101444.19
2022-12-19T19:39:23.868Z,101436.38
2022-12-19T19:41:50.788Z,101435.72
2022-12-19T19:44:17.671Z,101440.94
2022-12-19T19:46:46.110Z,101433.25
2022-12-19T19:49:13.079Z,101436.75
2022-12-19T19:51:40.051Z,101429.03
2022-12-19T19:54:06.933Z,101428.22
2022-12-19T19:56:33.858Z,101435.22
2022-12-19T19:59:00.834Z,101427.59
2022-12-19T20:01:28.989Z,101417.34
2022-12-19T20:03:56.088Z,101401.56
2022-12-19T20:06:23.384Z,101410.31
2022-12-19T20:08:50.359Z,101417.59
2022-12-19T20:11:17.649Z,101423.63
2022-12-19T20:13:44.796Z,101427.09
2022-12-19T20:16:17.902Z,101422.84
2022-12-19T20:18:51.231Z,101415.16
2022-12-19T20:21:19.877Z,101415.19
2022-12-19T20:23:47.243Z,101409.19
2022-12-19T20:26:16.442Z,101416.13
2022-12-19T20:28:49.014Z,101415.31
2022-12-19T20:31:19.372Z,101415.34
2022-12-19T20:33:46.450Z,101424.88
2022-12-19T20:36:13.930Z,101424.19
2022-12-19T20:38:40.947Z,101425.91
2022-12-19T20:41:08.155Z,101435.31
2022-12-19T20:43:35.310Z,101430.28
2022-12-19T20:46:05.431Z,101421.63
2022-12-19T20:48:32.678Z,101424.38
2022-12-19T20:51:01.097Z,101428.75
2022-12-19T20:53:28.504Z,101443.47
2022-12-19T20:55:58.865Z,101433.16
2022-12-19T20:58:30.991Z,101440.97
2022-12-19T21:01:06.349Z,101437.53
2022-12-19T21:03:34.324Z,101446.25
2022-12-19T21:06:01.397Z,101447.19
2022-12-19T21:08:28.400Z,101451.50
2022-12-19T21:10:55.338Z,101455.88
2022-12-19T21:13:23.726Z,101452.50
2022-12-19T21:15:59.859Z,101455.91
2022-12-19T21:18:27.431Z,101463.72
2022-12-19T21:20:55.685Z,101468.03
2022-12-19T21:23:23.905Z,101467.94
2022-12-19T21:25:52.345Z,101470.56
2022-12-19T21:28:19.448Z,101459.34
2022-12-19T21:30:46.361Z,101460.19
2022-12-19T21:33:13.267Z,101459.28
2022-12-19T21:35:40.161Z,101454.09
2022-12-19T21:38:07.047Z,101455.91
2022-12-19T21:40:37.216Z,101441.16
2022-12-19T21:43:11.156Z,101446.41
2022-12-19T21:45:38.909Z,101430.72
2022-12-19T21:48:06.083Z,101435.97
2022-12-19T21:50:33.885Z,101443.88
2022-12-19T21:53:01.153Z,101442.97
2022-12-19T21:55:28.097Z,101434.38
2022-12-19T21:57:54.991Z,101438.72
2022-12-19T22:00:22.130Z,101425.78
2022-12-19T22:03:12.116Z,101423.25
2022-12-19T22:05:36.668Z,101419.88
2022-12-19T22:08:03.559Z,101420.78
2022-12-19T22:10:30.521Z,101419.94
2022-12-19T22:12:57.397Z,101415.66
2022-12-19T22:15:24.297Z,101419.09
2022-12-19T22:17:51.174Z,101401.88
2022-12-19T22:20:18.063Z,101388.81
2022-12-19T22:22:45.042Z,101400.25
2022-12-19T22:25:11.950Z,101393.41
2022-12-19T22:27:38.916Z,101390.81
2022-12-19T22:30:11.197Z,101377.94
2022-12-19T22:32:38.269Z,101376.22
2022-12-19T22:35:06.027Z,101380.53
2022-12-19T22:37:33.049Z,101384.91
2022-12-19T22:40:00.433Z,101363.06
2022-12-19T22:42:30.247Z,101376.28
2022-12-19T22:44:57.148Z,101359.03
2022-12-19T22:47:24.040Z,101372.84
2022-12-19T22:49:52.145Z,101382.41
2022-12-19T22:52:19.357Z,101384.06
2022-12-19T22:54:46.379Z,101391.91
2022-12-19T22:57:13.260Z,101399.66
2022-12-19T22:59:40.417Z,101372.78
2022-12-19T23:02:07.565Z,101391.03
2022-12-19T23:04:36.040Z,101398.88
2022-12-19T23:07:02.995Z,101390.31
2022-12-19T23:09:29.884Z,101401.56
2022-12-19T23:11:56.853Z,101409.44
2022-12-19T23:14:23.739Z,101411.25
2022-12-19T23:16:50.807Z,101413.88
2022-12-19T23:19:18.444Z,101406.09
2022-12-19T23:21:45.493Z,101401.72
2022-12-19T23:24:12.891Z,101405.31
2022-12-19T23:26:40.036Z,101392.31
2022-12-19T23:29:12.139Z,101375.00
2022-12-19T23:31:41.566Z,101372.41
2022-12-19T23:34:08.783Z,101366.31
2022-12-19T23:37:09.659Z,101368.91
2022-12-19T23:39:22.579Z,101368.88
2022-12-19T23:41:49.472Z,101380.03
2022-12-19T23:44:16.513Z,101379.16
2022-12-19T23:46:43.407Z,101379.16
2022-12-19T23:49:10.273Z,101382.56
2022-12-19T23:51:37.190Z,101379.03
2022-12-19T23:54:04.365Z,101391.19
2022-12-19T23:56:32.595Z,101392.06
2022-12-19T23:58:59.819Z,101390.31
